sensor_id;sensor_type;location;lat;lon;timestamp;P1;durP1;ratioP1;P2;durP2;ratioP2
42000;SDS011;27689;48.390;10.856;2024-01-10T00:02:22;33.95;;;18.42;;
42000;SDS011;27689;48.390;10.856;2024-01-10T00:07:51;31.90;;;18.55;;
42000;SDS011;27689;48.390;10.856;2024-01-10T00:10:35;35.30;;;18.83;;
42000;SDS011;27689;48.390;10.856;2024-01-10T00:13:19;32.35;;;18.05;;
42000;SDS011;27689;48.390;10.856;2024-01-10T00:16:03;34.08;;;18.30;;
42000;SDS011;27689;48.390;10.856;2024-01-10T00:21:31;31.70;;;16.63;;
42000;SDS011;27689;48.390;10.856;2024-01-10T00:24:15;37.33;;;19.85;;
42000;SDS011;27689;48.390;10.856;2024-01-10T00:26:59;31.77;;;18.33;;
42000;SDS011;27689;48.390;10.856;2024-01-10T00:29:43;37.38;;;19.77;;
42000;SDS011;27689;48.390;10.856;2024-01-10T00:32:27;28.05;;;16.98;;
42000;SDS011;27689;48.390;10.856;2024-01-10T00:35:10;37.50;;;19.02;;
42000;SDS011;27689;48.390;10.856;2024-01-10T00:37:55;30.52;;;17.27;;
42000;SDS011;27689;48.390;10.856;2024-01-10T00:40:39;33.13;;;16.45;;
42000;SDS011;27689;48.390;10.856;2024-01-10T00:43:23;32.13;;;17.95;;
42000;SDS011;27689;48.390;10.856;2024-01-10T00:46:07;31.60;;;17.52;;
42000;SDS011;27689;48.390;10.856;2024-01-10T00:51:35;32.35;;;17.58;;
42000;SDS011;27689;48.390;10.856;2024-01-10T00:54:19;34.85;;;18.48;;
42000;SDS011;27689;48.390;10.856;2024-01-10T00:57:04;34.38;;;17.88;;
42000;SDS011;27689;48.390;10.856;2024-01-10T00:59:48;27.88;;;16.92;;
42000;SDS011;27689;48.390;10.856;2024-01-10T01:02:31;31.30;;;17.30;;
42000;SDS011;27689;48.390;10.856;2024-01-10T01:05:16;35.97;;;17.90;;
42000;SDS011;27689;48.390;10.856;2024-01-10T01:08:00;33.60;;;18.88;;
42000;SDS011;27689;48.390;10.856;2024-01-10T01:10:43;36.10;;;19.67;;
42000;SDS011;27689;48.390;10.856;2024-01-10T01:13:27;32.90;;;17.50;;
42000;SDS011;27689;48.390;10.856;2024-01-10T01:16:12;30.55;;;15.85;;
42000;SDS011;27689;48.390;10.856;2024-01-10T01:18:56;30.23;;;16.20;;
42000;SDS011;27689;48.390;10.856;2024-01-10T01:21:40;30.30;;;16.05;;
42000;SDS011;27689;48.390;10.856;2024-01-10T01:24:23;28.05;;;15.80;;
42000;SDS011;27689;48.390;10.856;2024-01-10T01:27:08;30.30;;;15.07;;
42000;SDS011;27689;48.390;10.856;2024-01-10T01:29:51;33.42;;;17.40;;
42000;SDS011;27689;48.390;10.856;2024-01-10T01:32:35;29.50;;;15.52;;
42000;SDS011;27689;48.390;10.856;2024-01-10T01:35:19;24.40;;;13.20;;
42000;SDS011;27689;48.390;10.856;2024-01-10T01:38:05;35.80;;;18.70;;
42000;SDS011;27689;48.390;10.856;2024-01-10T01:40:49;30.40;;;18.45;;
42000;SDS011;27689;48.390;10.856;2024-01-10T01:43:33;35.70;;;17.75;;
42000;SDS011;27689;48.390;10.856;2024-01-10T01:46:18;34.92;;;18.58;;
42000;SDS011;27689;48.390;10.856;2024-01-10T01:49:03;31.88;;;18.10;;
42000;SDS011;27689;48.390;10.856;2024-01-10T01:51:47;31.48;;;19.17;;
42000;SDS011;27689;48.390;10.856;2024-01-10T01:54:31;34.70;;;18.98;;
42000;SDS011;27689;48.390;10.856;2024-01-10T01:57:16;31.40;;;18.33;;
42000;SDS011;27689;48.390;10.856;2024-01-10T02:00:00;31.50;;;17.40;;
42000;SDS011;27689;48.390;10.856;2024-01-10T02:02:45;36.88;;;19.20;;
42000;SDS011;27689;48.390;10.856;2024-01-10T02:05:31;31.45;;;18.02;;
42000;SDS011;27689;48.390;10.856;2024-01-10T02:08:15;30.40;;;18.08;;
42000;SDS011;27689;48.390;10.856;2024-01-10T02:11:00;33.55;;;18.48;;
42000;SDS011;27689;48.390;10.856;2024-01-10T02:13:46;33.92;;;17.73;;
42000;SDS011;27689;48.390;10.856;2024-01-10T02:16:30;28.80;;;16.45;;
42000;SDS011;27689;48.390;10.856;2024-01-10T02:22:55;34.10;;;17.83;;
42000;SDS011;27689;48.390;10.856;2024-01-10T02:25:40;31.50;;;16.63;;
42000;SDS011;27689;48.390;10.856;2024-01-10T02:28:24;33.03;;;17.95;;
42000;SDS011;27689;48.390;10.856;2024-01-10T02:31:08;30.38;;;18.20;;
42000;SDS011;27689;48.390;10.856;2024-01-10T02:33:52;32.42;;;16.95;;
42000;SDS011;27689;48.390;10.856;2024-01-10T02:36:36;29.58;;;16.95;;
42000;SDS011;27689;48.390;10.856;2024-01-10T02:39:20;29.88;;;16.08;;
42000;SDS011;27689;48.390;10.856;2024-01-10T02:42:04;32.08;;;18.42;;
42000;SDS011;27689;48.390;10.856;2024-01-10T02:44:48;33.38;;;16.58;;
42000;SDS011;27689;48.390;10.856;2024-01-10T02:47:32;32.80;;;17.58;;
42000;SDS011;27689;48.390;10.856;2024-01-10T02:50:17;33.70;;;17.80;;
42000;SDS011;27689;48.390;10.856;2024-01-10T02:53:00;31.95;;;15.95;;
42000;SDS011;27689;48.390;10.856;2024-01-10T02:55:44;33.75;;;16.80;;
42000;SDS011;27689;48.390;10.856;2024-01-10T02:58:29;31.95;;;17.17;;
42000;SDS011;27689;48.390;10.856;2024-01-10T03:01:14;33.65;;;16.75;;
42000;SDS011;27689;48.390;10.856;2024-01-10T03:03:57;31.85;;;16.67;;
42000;SDS011;27689;48.390;10.856;2024-01-10T03:06:41;32.58;;;17.17;;
42000;SDS011;27689;48.390;10.856;2024-01-10T03:09:26;32.00;;;17.70;;
42000;SDS011;27689;48.390;10.856;2024-01-10T03:12:10;31.80;;;17.98;;
42000;SDS011;27689;48.390;10.856;2024-01-10T03:14:55;29.85;;;16.50;;
42000;SDS011;27689;48.390;10.856;2024-01-10T03:17:39;42.47;;;20.77;;
42000;SDS011;27689;48.390;10.856;2024-01-10T03:20:22;38.58;;;20.38;;
42000;SDS011;27689;48.390;10.856;2024-01-10T03:23:06;36.10;;;20.90;;
42000;SDS011;27689;48.390;10.856;2024-01-10T03:25:50;42.50;;;23.33;;
42000;SDS011;27689;48.390;10.856;2024-01-10T03:28:35;51.40;;;27.50;;
42000;SDS011;27689;48.390;10.856;2024-01-10T03:31:20;53.20;;;29.17;;
42000;SDS011;27689;48.390;10.856;2024-01-10T03:34:04;52.67;;;27.35;;
42000;SDS011;27689;48.390;10.856;2024-01-10T03:36:48;54.10;;;29.13;;
42000;SDS011;27689;48.390;10.856;2024-01-10T03:39:32;54.53;;;28.67;;
42000;SDS011;27689;48.390;10.856;2024-01-10T03:45:00;55.80;;;27.63;;
42000;SDS011;27689;48.390;10.856;2024-01-10T03:50:30;58.00;;;26.27;;
42000;SDS011;27689;48.390;10.856;2024-01-10T03:53:14;53.60;;;28.55;;
42000;SDS011;27689;48.390;10.856;2024-01-10T03:55:58;60.15;;;28.85;;
42000;SDS011;27689;48.390;10.856;2024-01-10T03:58:42;60.28;;;29.90;;
42000;SDS011;27689;48.390;10.856;2024-01-10T04:01:26;55.83;;;28.42;;
42000;SDS011;27689;48.390;10.856;2024-01-10T04:04:10;56.10;;;29.25;;
42000;SDS011;27689;48.390;10.856;2024-01-10T04:06:54;50.88;;;27.60;;
42000;SDS011;27689;48.390;10.856;2024-01-10T04:09:38;47.25;;;26.77;;
42000;SDS011;27689;48.390;10.856;2024-01-10T04:15:06;50.58;;;26.13;;
42000;SDS011;27689;48.390;10.856;2024-01-10T04:17:50;48.22;;;26.20;;
42000;SDS011;27689;48.390;10.856;2024-01-10T04:20:35;57.97;;;29.83;;
42000;SDS011;27689;48.390;10.856;2024-01-10T04:23:18;58.95;;;29.65;;
42000;SDS011;27689;48.390;10.856;2024-01-10T04:26:02;64.85;;;30.15;;
42000;SDS011;27689;48.390;10.856;2024-01-10T04:28:46;53.97;;;26.38;;
42000;SDS011;27689;48.390;10.856;2024-01-10T04:31:30;58.00;;;28.88;;
42000;SDS011;27689;48.390;10.856;2024-01-10T04:34:14;53.70;;;28.95;;
42000;SDS011;27689;48.390;10.856;2024-01-10T04:36:58;55.38;;;29.08;;
42000;SDS011;27689;48.390;10.856;2024-01-10T04:39:42;57.53;;;29.33;;
42000;SDS011;27689;48.390;10.856;2024-01-10T04:42:26;56.63;;;28.92;;
42000;SDS011;27689;48.390;10.856;2024-01-10T04:45:10;47.33;;;26.75;;
42000;SDS011;27689;48.390;10.856;2024-01-10T04:47:54;54.53;;;28.90;;
42000;SDS011;27689;48.390;10.856;2024-01-10T04:50:38;58.20;;;30.02;;
42000;SDS011;27689;48.390;10.856;2024-01-10T04:53:22;54.00;;;27.58;;
42000;SDS011;27689;48.390;10.856;2024-01-10T04:56:06;58.20;;;29.88;;
42000;SDS011;27689;48.390;10.856;2024-01-10T04:58:50;62.10;;;28.77;;
42000;SDS011;27689;48.390;10.856;2024-01-10T05:01:34;57.45;;;29.98;;
42000;SDS011;27689;48.390;10.856;2024-01-10T05:07:02;45.93;;;20.63;;
42000;SDS011;27689;48.390;10.856;2024-01-10T05:09:46;56.25;;;27.30;;
42000;SDS011;27689;48.390;10.856;2024-01-10T05:12:30;60.55;;;29.27;;
42000;SDS011;27689;48.390;10.856;2024-01-10T05:15:14;58.38;;;28.10;;
42000;SDS011;27689;48.390;10.856;2024-01-10T05:17:58;43.42;;;22.55;;
42000;SDS011;27689;48.390;10.856;2024-01-10T05:23:26;59.13;;;26.50;;
42000;SDS011;27689;48.390;10.856;2024-01-10T05:26:10;61.47;;;29.63;;
42000;SDS011;27689;48.390;10.856;2024-01-10T05:28:54;63.42;;;29.85;;
42000;SDS011;27689;48.390;10.856;2024-01-10T05:31:38;66.18;;;30.38;;
42000;SDS011;27689;48.390;10.856;2024-01-10T05:34:21;64.25;;;29.73;;
42000;SDS011;27689;48.390;10.856;2024-01-10T05:37:05;55.28;;;26.88;;
42000;SDS011;27689;48.390;10.856;2024-01-10T05:39:49;56.78;;;28.13;;
42000;SDS011;27689;48.390;10.856;2024-01-10T05:42:33;60.13;;;28.45;;
42000;SDS011;27689;48.390;10.856;2024-01-10T05:45:17;56.53;;;27.73;;
42000;SDS011;27689;48.390;10.856;2024-01-10T05:48:01;60.72;;;28.73;;
42000;SDS011;27689;48.390;10.856;2024-01-10T05:50:46;52.40;;;26.42;;
42000;SDS011;27689;48.390;10.856;2024-01-10T05:53:30;55.55;;;26.45;;
42000;SDS011;27689;48.390;10.856;2024-01-10T05:56:14;49.85;;;27.40;;
42000;SDS011;27689;48.390;10.856;2024-01-10T05:58:58;52.33;;;26.10;;
42000;SDS011;27689;48.390;10.856;2024-01-10T06:01:42;59.58;;;28.35;;
42000;SDS011;27689;48.390;10.856;2024-01-10T06:04:26;54.53;;;24.80;;
42000;SDS011;27689;48.390;10.856;2024-01-10T06:07:11;58.80;;;28.35;;
42000;SDS011;27689;48.390;10.856;2024-01-10T06:09:55;61.17;;;27.85;;
42000;SDS011;27689;48.390;10.856;2024-01-10T06:12:39;63.10;;;30.27;;
42000;SDS011;27689;48.390;10.856;2024-01-10T06:15:23;63.63;;;30.75;;
42000;SDS011;27689;48.390;10.856;2024-01-10T06:18:07;65.68;;;28.98;;
42000;SDS011;27689;48.390;10.856;2024-01-10T06:20:51;74.05;;;31.33;;
42000;SDS011;27689;48.390;10.856;2024-01-10T06:23:35;65.95;;;28.88;;
42000;SDS011;27689;48.390;10.856;2024-01-10T06:26:19;69.95;;;30.63;;
42000;SDS011;27689;48.390;10.856;2024-01-10T06:29:02;59.30;;;28.25;;
42000;SDS011;27689;48.390;10.856;2024-01-10T06:31:46;57.67;;;28.98;;
42000;SDS011;27689;48.390;10.856;2024-01-10T06:37:16;55.75;;;25.48;;
42000;SDS011;27689;48.390;10.856;2024-01-10T06:40:00;59.72;;;27.60;;
42000;SDS011;27689;48.390;10.856;2024-01-10T06:42:44;62.05;;;28.13;;
42000;SDS011;27689;48.390;10.856;2024-01-10T06:45:27;59.05;;;27.27;;
42000;SDS011;27689;48.390;10.856;2024-01-10T06:50:56;64.43;;;26.70;;
42000;SDS011;27689;48.390;10.856;2024-01-10T06:53:40;58.20;;;28.02;;
42000;SDS011;27689;48.390;10.856;2024-01-10T06:56:24;55.72;;;26.08;;
42000;SDS011;27689;48.390;10.856;2024-01-10T06:59:08;57.22;;;26.95;;
42000;SDS011;27689;48.390;10.856;2024-01-10T07:01:53;50.85;;;24.23;;
42000;SDS011;27689;48.390;10.856;2024-01-10T07:04:39;58.38;;;25.48;;
42000;SDS011;27689;48.390;10.856;2024-01-10T07:07:23;51.25;;;25.20;;
42000;SDS011;27689;48.390;10.856;2024-01-10T07:10:07;50.97;;;25.63;;
42000;SDS011;27689;48.390;10.856;2024-01-10T07:15:35;48.47;;;24.73;;
42000;SDS011;27689;48.390;10.856;2024-01-10T07:18:19;51.78;;;25.40;;
42000;SDS011;27689;48.390;10.856;2024-01-10T07:21:03;54.45;;;26.58;;
42000;SDS011;27689;48.390;10.856;2024-01-10T07:23:47;54.60;;;25.95;;
42000;SDS011;27689;48.390;10.856;2024-01-10T07:26:33;56.28;;;25.70;;
42000;SDS011;27689;48.390;10.856;2024-01-10T07:29:17;54.78;;;28.05;;
42000;SDS011;27689;48.390;10.856;2024-01-10T07:32:01;53.17;;;26.88;;
42000;SDS011;27689;48.390;10.856;2024-01-10T07:34:45;49.42;;;25.40;;
42000;SDS011;27689;48.390;10.856;2024-01-10T07:37:29;55.28;;;26.55;;
42000;SDS011;27689;48.390;10.856;2024-01-10T07:40:13;52.17;;;26.00;;
42000;SDS011;27689;48.390;10.856;2024-01-10T07:42:57;53.72;;;27.05;;
42000;SDS011;27689;48.390;10.856;2024-01-10T07:45:41;54.47;;;28.30;;
42000;SDS011;27689;48.390;10.856;2024-01-10T07:51:09;51.08;;;23.85;;
42000;SDS011;27689;48.390;10.856;2024-01-10T07:53:53;51.95;;;26.45;;
42000;SDS011;27689;48.390;10.856;2024-01-10T07:56:37;47.60;;;25.90;;
42000;SDS011;27689;48.390;10.856;2024-01-10T07:59:21;52.28;;;27.73;;
42000;SDS011;27689;48.390;10.856;2024-01-10T08:02:05;50.40;;;26.70;;
42000;SDS011;27689;48.390;10.856;2024-01-10T08:04:49;52.03;;;26.80;;
42000;SDS011;27689;48.390;10.856;2024-01-10T08:07:33;53.05;;;26.85;;
42000;SDS011;27689;48.390;10.856;2024-01-10T08:10:18;52.90;;;27.55;;
42000;SDS011;27689;48.390;10.856;2024-01-10T08:13:01;51.30;;;26.80;;
42000;SDS011;27689;48.390;10.856;2024-01-10T08:15:45;53.50;;;28.85;;
42000;SDS011;27689;48.390;10.856;2024-01-10T08:18:29;51.22;;;26.52;;
42000;SDS011;27689;48.390;10.856;2024-01-10T08:21:14;49.33;;;25.48;;
42000;SDS011;27689;48.390;10.856;2024-01-10T08:23:58;46.15;;;25.05;;
42000;SDS011;27689;48.390;10.856;2024-01-10T08:26:42;48.88;;;24.73;;
42000;SDS011;27689;48.390;10.856;2024-01-10T08:29:25;48.08;;;25.00;;
42000;SDS011;27689;48.390;10.856;2024-01-10T08:32:14;52.08;;;27.50;;
42000;SDS011;27689;48.390;10.856;2024-01-10T08:34:59;55.42;;;28.00;;
42000;SDS011;27689;48.390;10.856;2024-01-10T08:37:43;54.70;;;28.02;;
42000;SDS011;27689;48.390;10.856;2024-01-10T08:40:28;54.30;;;28.02;;
42000;SDS011;27689;48.390;10.856;2024-01-10T08:43:12;79.15;;;36.72;;
42000;SDS011;27689;48.390;10.856;2024-01-10T08:45:56;71.53;;;36.08;;
42000;SDS011;27689;48.390;10.856;2024-01-10T08:48:41;57.30;;;29.02;;
42000;SDS011;27689;48.390;10.856;2024-01-10T08:51:26;56.38;;;28.77;;
42000;SDS011;27689;48.390;10.856;2024-01-10T08:56:56;53.35;;;28.08;;
42000;SDS011;27689;48.390;10.856;2024-01-10T08:59:43;51.05;;;26.67;;
42000;SDS011;27689;48.390;10.856;2024-01-10T09:02:27;50.20;;;25.95;;
42000;SDS011;27689;48.390;10.856;2024-01-10T09:05:11;72.75;;;34.40;;
42000;SDS011;27689;48.390;10.856;2024-01-10T09:07:55;60.03;;;29.50;;
42000;SDS011;27689;48.390;10.856;2024-01-10T09:13:23;64.72;;;30.02;;
42000;SDS011;27689;48.390;10.856;2024-01-10T09:18:53;50.60;;;25.63;;
42000;SDS011;27689;48.390;10.856;2024-01-10T09:21:40;51.78;;;25.70;;
42000;SDS011;27689;48.390;10.856;2024-01-10T09:24:24;41.22;;;21.02;;
42000;SDS011;27689;48.390;10.856;2024-01-10T09:27:09;52.53;;;26.92;;
42000;SDS011;27689;48.390;10.856;2024-01-10T09:29:53;52.60;;;28.00;;
42000;SDS011;27689;48.390;10.856;2024-01-10T09:32:37;49.17;;;26.08;;
42000;SDS011;27689;48.390;10.856;2024-01-10T09:35:22;56.45;;;29.48;;
42000;SDS011;27689;48.390;10.856;2024-01-10T09:38:06;52.13;;;26.30;;
42000;SDS011;27689;48.390;10.856;2024-01-10T09:40:50;52.65;;;26.50;;
42000;SDS011;27689;48.390;10.856;2024-01-10T09:43:36;49.08;;;25.30;;
42000;SDS011;27689;48.390;10.856;2024-01-10T09:46:20;47.80;;;25.83;;
42000;SDS011;27689;48.390;10.856;2024-01-10T09:49:04;51.17;;;26.35;;
42000;SDS011;27689;48.390;10.856;2024-01-10T09:51:49;54.60;;;28.30;;
42000;SDS011;27689;48.390;10.856;2024-01-10T09:54:34;55.75;;;28.42;;
42000;SDS011;27689;48.390;10.856;2024-01-10T09:57:25;61.17;;;30.52;;
42000;SDS011;27689;48.390;10.856;2024-01-10T10:00:10;59.20;;;29.75;;
42000;SDS011;27689;48.390;10.856;2024-01-10T10:02:54;51.85;;;26.95;;
42000;SDS011;27689;48.390;10.856;2024-01-10T10:05:39;60.72;;;29.73;;
42000;SDS011;27689;48.390;10.856;2024-01-10T10:08:25;57.03;;;28.60;;
42000;SDS011;27689;48.390;10.856;2024-01-10T10:11:13;56.08;;;28.75;;
42000;SDS011;27689;48.390;10.856;2024-01-10T10:14:16;60.10;;;30.17;;
42000;SDS011;27689;48.390;10.856;2024-01-10T10:17:17;48.70;;;26.05;;
42000;SDS011;27689;48.390;10.856;2024-01-10T10:20:04;55.05;;;28.95;;
42000;SDS011;27689;48.390;10.856;2024-01-10T10:25:46;54.97;;;27.65;;
42000;SDS011;27689;48.390;10.856;2024-01-10T10:28:32;56.97;;;29.85;;
42000;SDS011;27689;48.390;10.856;2024-01-10T10:31:17;54.95;;;27.83;;
42000;SDS011;27689;48.390;10.856;2024-01-10T10:34:02;59.97;;;28.38;;
42000;SDS011;27689;48.390;10.856;2024-01-10T10:39:31;53.60;;;26.50;;
42000;SDS011;27689;48.390;10.856;2024-01-10T10:42:15;55.50;;;27.60;;
42000;SDS011;27689;48.390;10.856;2024-01-10T10:45:02;50.92;;;26.35;;
42000;SDS011;27689;48.390;10.856;2024-01-10T10:47:47;58.47;;;29.85;;
42000;SDS011;27689;48.390;10.856;2024-01-10T10:50:34;47.78;;;26.67;;
42000;SDS011;27689;48.390;10.856;2024-01-10T10:53:19;53.83;;;28.27;;
42000;SDS011;27689;48.390;10.856;2024-01-10T10:56:06;53.72;;;29.33;;
42000;SDS011;27689;48.390;10.856;2024-01-10T10:58:51;57.00;;;29.35;;
42000;SDS011;27689;48.390;10.856;2024-01-10T11:01:37;57.25;;;28.15;;
42000;SDS011;27689;48.390;10.856;2024-01-10T11:04:23;56.45;;;28.33;;
42000;SDS011;27689;48.390;10.856;2024-01-10T11:07:08;59.42;;;30.70;;
42000;SDS011;27689;48.390;10.856;2024-01-10T11:09:52;61.08;;;30.65;;
42000;SDS011;27689;48.390;10.856;2024-01-10T11:22:25;53.75;;;28.40;;
42000;SDS011;27689;48.390;10.856;2024-01-10T11:25:26;53.00;;;29.35;;
42000;SDS011;27689;48.390;10.856;2024-01-10T11:28:13;53.90;;;30.05;;
42000;SDS011;27689;48.390;10.856;2024-01-10T11:30:56;53.95;;;29.05;;
42000;SDS011;27689;48.390;10.856;2024-01-10T11:33:42;54.72;;;28.95;;
42000;SDS011;27689;48.390;10.856;2024-01-10T11:36:33;50.42;;;28.98;;
42000;SDS011;27689;48.390;10.856;2024-01-10T11:42:02;54.72;;;29.00;;
42000;SDS011;27689;48.390;10.856;2024-01-10T11:44:47;60.33;;;29.95;;
42000;SDS011;27689;48.390;10.856;2024-01-10T11:47:38;57.90;;;30.80;;
42000;SDS011;27689;48.390;10.856;2024-01-10T11:50:24;62.15;;;32.10;;
42000;SDS011;27689;48.390;10.856;2024-01-10T11:53:10;55.10;;;28.42;;
42000;SDS011;27689;48.390;10.856;2024-01-10T11:55:54;58.60;;;31.80;;
42000;SDS011;27689;48.390;10.856;2024-01-10T11:58:54;52.65;;;29.48;;
42000;SDS011;27689;48.390;10.856;2024-01-10T12:01:46;55.78;;;29.42;;
42000;SDS011;27689;48.390;10.856;2024-01-10T12:07:18;50.53;;;26.00;;
42000;SDS011;27689;48.390;10.856;2024-01-10T12:12:46;59.83;;;29.33;;
42000;SDS011;27689;48.390;10.856;2024-01-10T12:15:30;52.53;;;29.48;;
42000;SDS011;27689;48.390;10.856;2024-01-10T12:18:15;55.38;;;27.98;;
42000;SDS011;27689;48.390;10.856;2024-01-10T12:20:59;63.30;;;35.45;;
42000;SDS011;27689;48.390;10.856;2024-01-10T12:23:43;64.75;;;32.75;;
42000;SDS011;27689;48.390;10.856;2024-01-10T12:26:28;56.22;;;29.17;;
42000;SDS011;27689;48.390;10.856;2024-01-10T12:31:57;55.83;;;28.52;;
42000;SDS011;27689;48.390;10.856;2024-01-10T12:34:41;66.55;;;31.35;;
42000;SDS011;27689;48.390;10.856;2024-01-10T12:37:25;57.75;;;29.60;;
42000;SDS011;27689;48.390;10.856;2024-01-10T12:40:09;51.60;;;27.73;;
42000;SDS011;27689;48.390;10.856;2024-01-10T12:43:03;51.72;;;28.50;;
42000;SDS011;27689;48.390;10.856;2024-01-10T12:46:01;50.92;;;27.15;;
42000;SDS011;27689;48.390;10.856;2024-01-10T12:48:58;53.80;;;26.40;;
42000;SDS011;27689;48.390;10.856;2024-01-10T12:51:43;49.70;;;26.15;;
42000;SDS011;27689;48.390;10.856;2024-01-10T12:54:27;56.70;;;29.95;;
42000;SDS011;27689;48.390;10.856;2024-01-10T12:57:11;49.45;;;27.40;;
42000;SDS011;27689;48.390;10.856;2024-01-10T12:59:55;52.53;;;27.10;;
42000;SDS011;27689;48.390;10.856;2024-01-10T13:02:40;51.80;;;27.35;;
42000;SDS011;27689;48.390;10.856;2024-01-10T13:05:24;56.03;;;29.48;;
42000;SDS011;27689;48.390;10.856;2024-01-10T13:08:08;54.00;;;28.50;;
42000;SDS011;27689;48.390;10.856;2024-01-10T13:10:52;52.30;;;28.05;;
42000;SDS011;27689;48.390;10.856;2024-01-10T13:13:35;63.30;;;32.78;;
42000;SDS011;27689;48.390;10.856;2024-01-10T13:16:19;62.53;;;31.52;;
42000;SDS011;27689;48.390;10.856;2024-01-10T13:19:03;57.53;;;28.85;;
42000;SDS011;27689;48.390;10.856;2024-01-10T13:21:47;54.70;;;30.05;;
42000;SDS011;27689;48.390;10.856;2024-01-10T13:24:32;53.80;;;28.73;;
42000;SDS011;27689;48.390;10.856;2024-01-10T13:27:18;54.88;;;28.60;;
42000;SDS011;27689;48.390;10.856;2024-01-10T13:30:03;57.35;;;30.55;;
42000;SDS011;27689;48.390;10.856;2024-01-10T13:32:52;65.13;;;32.40;;
42000;SDS011;27689;48.390;10.856;2024-01-10T13:35:38;58.00;;;30.40;;
42000;SDS011;27689;48.390;10.856;2024-01-10T13:38:22;56.67;;;31.35;;
42000;SDS011;27689;48.390;10.856;2024-01-10T13:41:07;62.03;;;30.50;;
42000;SDS011;27689;48.390;10.856;2024-01-10T13:43:52;55.55;;;29.63;;
42000;SDS011;27689;48.390;10.856;2024-01-10T13:46:37;62.17;;;33.00;;
42000;SDS011;27689;48.390;10.856;2024-01-10T13:49:21;54.53;;;30.63;;
42000;SDS011;27689;48.390;10.856;2024-01-10T13:52:05;54.25;;;29.65;;
42000;SDS011;27689;48.390;10.856;2024-01-10T13:54:49;57.08;;;31.58;;
42000;SDS011;27689;48.390;10.856;2024-01-10T13:57:33;58.60;;;30.33;;
42000;SDS011;27689;48.390;10.856;2024-01-10T14:00:19;65.38;;;33.88;;
42000;SDS011;27689;48.390;10.856;2024-01-10T14:03:04;59.25;;;32.78;;
42000;SDS011;27689;48.390;10.856;2024-01-10T14:05:48;57.08;;;31.50;;
42000;SDS011;27689;48.390;10.856;2024-01-10T14:08:32;58.35;;;29.15;;
42000;SDS011;27689;48.390;10.856;2024-01-10T14:11:19;58.10;;;30.25;;
42000;SDS011;27689;48.390;10.856;2024-01-10T14:14:03;57.33;;;28.77;;
42000;SDS011;27689;48.390;10.856;2024-01-10T14:16:47;54.92;;;28.55;;
42000;SDS011;27689;48.390;10.856;2024-01-10T14:19:31;65.03;;;33.55;;
42000;SDS011;27689;48.390;10.856;2024-01-10T14:22:15;55.25;;;28.85;;
42000;SDS011;27689;48.390;10.856;2024-01-10T14:25:01;57.58;;;29.95;;
42000;SDS011;27689;48.390;10.856;2024-01-10T14:27:44;56.25;;;28.65;;
42000;SDS011;27689;48.390;10.856;2024-01-10T14:30:28;57.78;;;28.23;;
42000;SDS011;27689;48.390;10.856;2024-01-10T14:33:12;56.83;;;29.48;;
42000;SDS011;27689;48.390;10.856;2024-01-10T14:35:57;63.58;;;29.88;;
42000;SDS011;27689;48.390;10.856;2024-01-10T14:38:41;56.42;;;29.23;;
42000;SDS011;27689;48.390;10.856;2024-01-10T14:41:25;59.50;;;29.88;;
42000;SDS011;27689;48.390;10.856;2024-01-10T14:44:09;58.67;;;30.00;;
42000;SDS011;27689;48.390;10.856;2024-01-10T14:46:54;57.92;;;29.40;;
42000;SDS011;27689;48.390;10.856;2024-01-10T14:49:37;58.47;;;29.23;;
42000;SDS011;27689;48.390;10.856;2024-01-10T14:55:06;63.25;;;30.10;;
42000;SDS011;27689;48.390;10.856;2024-01-10T14:57:51;55.50;;;26.90;;
42000;SDS011;27689;48.390;10.856;2024-01-10T15:00:35;53.38;;;27.50;;
42000;SDS011;27689;48.390;10.856;2024-01-10T15:03:20;55.45;;;29.27;;
42000;SDS011;27689;48.390;10.856;2024-01-10T15:06:05;54.90;;;28.40;;
42000;SDS011;27689;48.390;10.856;2024-01-10T15:08:49;54.72;;;27.80;;
42000;SDS011;27689;48.390;10.856;2024-01-10T15:11:33;51.13;;;26.92;;
42000;SDS011;27689;48.390;10.856;2024-01-10T15:14:17;57.20;;;29.77;;
42000;SDS011;27689;48.390;10.856;2024-01-10T15:17:03;66.55;;;33.33;;
42000;SDS011;27689;48.390;10.856;2024-01-10T15:19:49;61.45;;;31.55;;
42000;SDS011;27689;48.390;10.856;2024-01-10T15:22:33;56.80;;;29.50;;
42000;SDS011;27689;48.390;10.856;2024-01-10T15:25:20;58.85;;;29.95;;
42000;SDS011;27689;48.390;10.856;2024-01-10T15:28:04;68.68;;;34.40;;
42000;SDS011;27689;48.390;10.856;2024-01-10T15:30:48;61.88;;;30.20;;
42000;SDS011;27689;48.390;10.856;2024-01-10T15:33:33;60.55;;;30.27;;
42000;SDS011;27689;48.390;10.856;2024-01-10T15:36:18;55.45;;;29.02;;
42000;SDS011;27689;48.390;10.856;2024-01-10T15:39:02;51.80;;;27.25;;
42000;SDS011;27689;48.390;10.856;2024-01-10T15:41:48;56.22;;;27.40;;
42000;SDS011;27689;48.390;10.856;2024-01-10T15:44:33;55.17;;;27.60;;
42000;SDS011;27689;48.390;10.856;2024-01-10T15:47:22;58.03;;;28.17;;
42000;SDS011;27689;48.390;10.856;2024-01-10T15:50:06;53.05;;;26.67;;
42000;SDS011;27689;48.390;10.856;2024-01-10T15:52:51;52.65;;;27.73;;
42000;SDS011;27689;48.390;10.856;2024-01-10T15:55:35;53.63;;;27.65;;
42000;SDS011;27689;48.390;10.856;2024-01-10T15:58:20;61.97;;;30.08;;
42000;SDS011;27689;48.390;10.856;2024-01-10T16:01:05;60.70;;;31.42;;
42000;SDS011;27689;48.390;10.856;2024-01-10T16:03:49;53.25;;;28.10;;
42000;SDS011;27689;48.390;10.856;2024-01-10T16:06:35;53.60;;;28.40;;
42000;SDS011;27689;48.390;10.856;2024-01-10T16:09:22;50.45;;;27.05;;
42000;SDS011;27689;48.390;10.856;2024-01-10T16:12:06;64.45;;;31.90;;
42000;SDS011;27689;48.390;10.856;2024-01-10T16:14:50;52.45;;;27.13;;
42000;SDS011;27689;48.390;10.856;2024-01-10T16:17:34;57.92;;;29.52;;
42000;SDS011;27689;48.390;10.856;2024-01-10T16:20:18;52.03;;;27.17;;
42000;SDS011;27689;48.390;10.856;2024-01-10T16:23:02;52.05;;;26.35;;
42000;SDS011;27689;48.390;10.856;2024-01-10T16:25:46;58.47;;;28.90;;
42000;SDS011;27689;48.390;10.856;2024-01-10T16:28:29;62.25;;;30.15;;
42000;SDS011;27689;48.390;10.856;2024-01-10T16:31:13;57.97;;;29.58;;
42000;SDS011;27689;48.390;10.856;2024-01-10T16:33:58;55.78;;;27.85;;
42000;SDS011;27689;48.390;10.856;2024-01-10T16:36:42;65.22;;;31.15;;
42000;SDS011;27689;48.390;10.856;2024-01-10T16:39:26;61.30;;;30.52;;
42000;SDS011;27689;48.390;10.856;2024-01-10T16:44:56;59.45;;;29.15;;
42000;SDS011;27689;48.390;10.856;2024-01-10T16:47:40;68.45;;;30.95;;
42000;SDS011;27689;48.390;10.856;2024-01-10T16:50:24;65.35;;;28.92;;
42000;SDS011;27689;48.390;10.856;2024-01-10T16:53:09;66.40;;;30.35;;
42000;SDS011;27689;48.390;10.856;2024-01-10T16:58:37;69.30;;;29.87;;
42000;SDS011;27689;48.390;10.856;2024-01-10T17:01:21;70.95;;;32.03;;
42000;SDS011;27689;48.390;10.856;2024-01-10T17:06:49;70.20;;;29.88;;
42000;SDS011;27689;48.390;10.856;2024-01-10T17:09:33;80.60;;;32.72;;
42000;SDS011;27689;48.390;10.856;2024-01-10T17:12:17;67.70;;;30.77;;